createdAt,value
2024-03-01T00:00:23.293Z,11.65
2024-03-01T00:03:16.015Z,9.02
2024-03-01T00:06:08.747Z,8.23
2024-03-01T00:09:01.298Z,8.45
2024-03-01T00:11:54.116Z,8.82
2024-03-01T00:14:46.961Z,9.05
2024-03-01T00:17:39.687Z,8.05
2024-03-01T00:20:32.609Z,8.50
2024-03-01T00:23:27.841Z,7.90
2024-03-01T00:26:21.156Z,7.88
2024-03-01T00:29:14.199Z,8.63
2024-03-01T00:32:07.179Z,8.63
2024-03-01T00:34:59.965Z,7.88
2024-03-01T00:37:53.500Z,7.60
2024-03-01T00:40:45.783Z,7.43
2024-03-01T00:43:39.360Z,7.68
2024-03-01T00:46:31.677Z,7.15
2024-03-01T00:49:24.085Z,7.03
2024-03-01T00:52:16.871Z,7.32
2024-03-01T00:55:08.971Z,8.13
2024-03-01T00:58:01.384Z,8.20
2024-03-01T01:00:53.920Z,7.93
2024-03-01T01:03:46.124Z,7.85
2024-03-01T01:06:38.892Z,10.73
2024-03-01T01:09:30.773Z,8.38
2024-03-01T01:12:22.945Z,8.85
2024-03-01T01:15:15.064Z,7.93
2024-03-01T01:18:07.960Z,7.38
2024-03-01T01:21:00.085Z,8.18
2024-03-01T01:23:53.210Z,9.13
2024-03-01T01:26:45.883Z,9.23
2024-03-01T01:29:38.085Z,10.55
2024-03-01T01:32:29.963Z,10.05
2024-03-01T01:35:22.066Z,10.68
2024-03-01T01:38:14.045Z,8.30
2024-03-01T01:41:07.125Z,8.63
2024-03-01T01:44:00.173Z,7.68
2024-03-01T01:46:53.563Z,8.85
2024-03-01T01:49:46.473Z,13.35
2024-03-01T01:52:39.704Z,7.95
2024-03-01T01:55:33.446Z,9.27
2024-03-01T01:58:26.254Z,8.48
2024-03-01T02:01:19.968Z,8.98
2024-03-01T02:04:11.964Z,9.07
2024-03-01T02:07:05.629Z,7.93
2024-03-01T02:09:58.120Z,14.15
2024-03-01T02:12:57.306Z,9.35
2024-03-01T02:15:50.218Z,9.27
2024-03-01T02:18:42.876Z,8.32
2024-03-01T02:21:37.652Z,8.00
2024-03-01T02:24:30.184Z,10.60
2024-03-01T02:27:22.116Z,9.63
2024-03-01T02:30:15.360Z,8.80
2024-03-01T02:33:08.382Z,10.05
2024-03-01T02:36:01.305Z,8.43
2024-03-01T02:38:54.193Z,11.30
2024-03-01T02:41:50.315Z,9.73
2024-03-01T02:44:43.360Z,9.32
2024-03-01T02:47:36.505Z,9.25
2024-03-01T02:50:29.331Z,9.98
2024-03-01T02:53:22.284Z,9.57
2024-03-01T02:56:15.237Z,12.07
2024-03-01T02:59:06.991Z,11.20
2024-03-01T03:02:00.065Z,10.82
2024-03-01T03:04:54.488Z,11.40
2024-03-01T03:07:48.408Z,10.27
2024-03-01T03:10:41.605Z,9.80
2024-03-01T03:13:34.471Z,9.95
2024-03-01T03:16:27.230Z,13.20
2024-03-01T03:19:20.342Z,11.45
2024-03-01T03:22:13.057Z,10.50
2024-03-01T03:25:06.337Z,13.23
2024-03-01T03:27:59.062Z,13.93
2024-03-01T03:30:50.956Z,9.73
2024-03-01T03:33:43.188Z,10.70
2024-03-01T03:36:35.218Z,11.30
2024-03-01T03:39:27.101Z,16.48
2024-03-01T03:42:19.107Z,11.57
2024-03-01T03:45:12.081Z,15.70
2024-03-01T03:48:05.824Z,11.50
2024-03-01T03:50:58.429Z,13.20
2024-03-01T03:53:51.307Z,16.67
2024-03-01T03:56:46.352Z,14.40
2024-03-01T03:59:38.318Z,11.40
2024-03-01T04:02:30.794Z,14.27
2024-03-01T04:05:23.193Z,10.85
2024-03-01T04:08:15.353Z,15.95
2024-03-01T04:11:08.112Z,12.15
2024-03-01T04:14:00.314Z,11.50
2024-03-01T04:16:52.380Z,11.65
2024-03-01T04:19:44.263Z,11.13
2024-03-01T04:22:36.421Z,11.07
2024-03-01T04:25:29.516Z,11.27
2024-03-01T04:28:23.373Z,9.63
2024-03-01T04:31:16.552Z,11.00
2024-03-01T04:34:09.554Z,10.45
2024-03-01T04:37:02.636Z,15.68
2024-03-01T04:39:55.733Z,17.52
2024-03-01T04:42:48.640Z,20.10
2024-03-01T04:45:41.298Z,16.70
2024-03-01T04:48:33.517Z,17.63
2024-03-01T04:51:26.597Z,12.82
2024-03-01T04:54:19.269Z,11.60
2024-03-01T04:57:11.573Z,12.15
2024-03-01T05:00:13.278Z,11.75
2024-03-01T05:03:08.882Z,12.32
2024-03-01T05:06:04.503Z,11.98
2024-03-01T05:08:57.868Z,11.70
2024-03-01T05:11:50.610Z,11.10
2024-03-01T05:14:43.769Z,10.45
2024-03-01T05:17:40.287Z,10.88
2024-03-01T05:20:32.363Z,14.02
2024-03-01T05:23:24.426Z,10.05
2024-03-01T05:26:16.824Z,10.70
2024-03-01T05:29:09.517Z,10.02
2024-03-01T05:32:01.654Z,11.20
2024-03-01T05:34:54.465Z,12.00
2024-03-01T05:37:47.332Z,11.15
2024-03-01T05:40:46.734Z,10.88
2024-03-01T05:43:44.778Z,11.65
2024-03-01T05:46:37.676Z,10.57
2024-03-01T05:49:30.556Z,11.25
2024-03-01T05:52:22.629Z,10.60
2024-03-01T05:55:14.625Z,11.00
2024-03-01T05:58:07.493Z,16.27
2024-03-01T06:01:00.876Z,14.60
2024-03-01T06:03:53.554Z,13.63
2024-03-01T06:06:45.670Z,10.63
2024-03-01T06:09:39.422Z,11.10
2024-03-01T06:12:31.539Z,13.55
2024-03-01T06:15:23.374Z,10.43
2024-03-01T06:18:15.627Z,11.23
2024-03-01T06:21:07.527Z,12.23
2024-03-01T06:23:59.774Z,16.90
2024-03-01T06:26:55.754Z,15.30
2024-03-01T06:29:50.044Z,11.63
2024-03-01T06:32:44.492Z,11.32
2024-03-01T06:35:37.062Z,13.52
2024-03-01T06:38:29.571Z,14.45
2024-03-01T06:41:21.669Z,16.88
2024-03-01T06:44:15.099Z,11.70
2024-03-01T06:47:14.878Z,13.38
2024-03-01T06:50:10.264Z,12.00
2024-03-01T06:53:02.984Z,12.93
2024-03-01T06:55:56.372Z,10.98
2024-03-01T06:58:49.406Z,12.23
2024-03-01T07:01:41.771Z,12.15
2024-03-01T07:04:33.840Z,14.95
2024-03-01T07:07:26.541Z,11.40
2024-03-01T07:10:18.794Z,12.40
2024-03-01T07:13:11.567Z,11.60
2024-03-01T07:16:03.861Z,18.17
2024-03-01T07:18:56.829Z,17.33
2024-03-01T07:21:49.842Z,14.23
2024-03-01T07:24:42.006Z,13.15
2024-03-01T07:27:35.510Z,15.25
2024-03-01T07:30:28.218Z,15.32
2024-03-01T07:33:21.507Z,14.45
2024-03-01T07:36:14.054Z,12.65
2024-03-01T07:39:06.878Z,16.90
2024-03-01T07:42:00.327Z,15.63
2024-03-01T07:44:57.030Z,16.63
2024-03-01T07:47:49.908Z,13.48
2024-03-01T07:50:43.048Z,12.90
2024-03-01T07:53:35.923Z,21.85
2024-03-01T07:56:28.774Z,16.95
2024-03-01T07:59:20.746Z,15.38
2024-03-01T08:02:13.058Z,19.35
2024-03-01T08:05:07.741Z,13.88
2024-03-01T08:07:59.844Z,14.82
2024-03-01T08:10:51.782Z,13.20
2024-03-01T08:13:43.730Z,13.30
2024-03-01T08:16:36.282Z,15.10
2024-03-01T08:19:37.620Z,16.20
2024-03-01T08:22:30.055Z,13.32
2024-03-01T08:25:22.968Z,18.13
2024-03-01T08:28:27.326Z,22.02
2024-03-01T08:31:29.705Z,14.75
2024-03-01T08:34:25.785Z,17.90
2024-03-01T08:37:25.452Z,18.95
2024-03-01T08:40:53.105Z,18.98
2024-03-01T08:43:45.886Z,20.10
2024-03-01T08:46:38.017Z,16.95
2024-03-01T08:49:54.686Z,19.63
2024-03-01T08:52:49.101Z,20.17
2024-03-01T08:55:45.147Z,23.90
2024-03-01T08:58:39.403Z,18.60
2024-03-01T09:01:47.385Z,16.25
2024-03-01T09:04:39.952Z,16.85
2024-03-01T09:07:33.177Z,18.52
2024-03-01T09:10:30.560Z,21.40
2024-03-01T09:13:26.229Z,20.67
2024-03-01T09:16:20.619Z,17.70
2024-03-01T09:19:23.014Z,16.40
2024-03-01T09:22:17.641Z,15.98
2024-03-01T09:25:47.586Z,14.10
2024-03-01T09:28:40.156Z,15.52
2024-03-01T09:31:34.320Z,17.50
2024-03-01T09:34:35.627Z,14.55
2024-03-01T09:37:28.432Z,13.00
2024-03-01T09:40:39.361Z,13.93
2024-03-01T09:44:03.732Z,14.10
2024-03-01T09:47:39.140Z,12.88
2024-03-01T09:50:55.649Z,12.18
2024-03-01T09:54:03.265Z,11.07
2024-03-01T09:57:18.753Z,16.60
2024-03-01T10:00:24.018Z,16.60
2024-03-01T10:03:34.528Z,15.90
2024-03-01T10:07:13.414Z,20.10
2024-03-01T10:10:27.300Z,14.07
2024-03-01T10:13:44.379Z,11.32
2024-03-01T10:17:14.283Z,14.43
2024-03-01T10:20:22.678Z,11.65
2024-03-01T10:23:40.117Z,11.73
2024-03-01T10:26:34.802Z,11.20
2024-03-01T10:29:45.948Z,11.57
2024-03-01T10:32:54.674Z,16.42
2024-03-01T10:36:26.347Z,15.23
2024-03-01T10:39:31.187Z,15.60
2024-03-01T10:42:27.457Z,10.27
2024-03-01T10:46:01.594Z,11.98
2024-03-01T10:48:59.946Z,14.55
2024-03-01T10:52:12.038Z,11.98
2024-03-01T10:55:11.753Z,10.95
2024-03-01T10:58:46.194Z,9.98
2024-03-01T11:02:02.092Z,12.65
2024-03-01T11:05:08.100Z,11.75
2024-03-01T11:08:38.597Z,11.63
2024-03-01T11:11:49.706Z,9.02
2024-03-01T11:14:53.441Z,9.63
2024-03-01T11:17:51.376Z,9.20
2024-03-01T11:20:54.372Z,10.57
2024-03-01T11:24:00.701Z,10.88
2024-03-01T11:26:56.992Z,7.65
2024-03-01T11:30:00.708Z,11.50
2024-03-01T11:33:02.347Z,10.48
2024-03-01T11:36:35.623Z,7.97
2024-03-01T11:39:57.704Z,10.13
2024-03-01T11:43:12.432Z,8.13
2024-03-01T11:46:27.697Z,6.93
2024-03-01T11:49:35.005Z,6.57
2024-03-01T11:53:10.672Z,10.48
2024-03-01T11:56:20.596Z,6.90
2024-03-01T11:59:49.487Z,8.60
2024-03-01T12:03:09.426Z,7.68
2024-03-01T12:06:07.041Z,6.90
2024-03-01T12:09:17.554Z,7.45
2024-03-01T12:12:45.818Z,7.40
2024-03-01T12:16:13.296Z,7.45
2024-03-01T12:19:21.002Z,6.43
2024-03-01T12:22:48.792Z,6.25
2024-03-01T12:25:41.651Z,6.57
2024-03-01T12:29:30.495Z,7.95
2024-03-01T12:33:07.484Z,7.60
2024-03-01T12:36:22.934Z,5.95
2024-03-01T12:39:22.016Z,5.03
2024-03-01T12:42:34.602Z,4.70
2024-03-01T12:46:26.306Z,4.75
2024-03-01T12:50:06.694Z,8.70
2024-03-01T12:53:33.148Z,5.65
2024-03-01T12:56:49.197Z,5.65
2024-03-01T13:00:16.841Z,4.40
2024-03-01T13:03:39.719Z,4.60
2024-03-01T13:06:35.105Z,4.65
2024-03-01T13:09:35.212Z,4.43
2024-03-01T13:12:29.158Z,5.63
2024-03-01T13:15:26.768Z,4.72
2024-03-01T13:18:32.101Z,4.32
2024-03-01T13:21:59.751Z,4.35
2024-03-01T13:25:01.144Z,5.10
2024-03-01T13:28:03.286Z,8.27
2024-03-01T13:31:06.434Z,7.55
2024-03-01T13:34:00.624Z,5.68
2024-03-01T13:37:36.398Z,4.93
2024-03-01T13:40:41.689Z,5.78
2024-03-01T13:43:38.760Z,6.57
2024-03-01T13:46:40.923Z,5.82
2024-03-01T13:49:41.436Z,5.20
2024-03-01T13:52:40.588Z,5.80
2024-03-01T13:55:38.688Z,4.90
2024-03-01T13:58:33.834Z,4.72
2024-03-01T14:01:28.849Z,5.47
2024-03-01T14:04:21.841Z,4.13
2024-03-01T14:07:16.483Z,3.60
2024-03-01T14:10:10.116Z,3.50
2024-03-01T14:13:04.750Z,3.45
2024-03-01T14:16:08.647Z,3.03
2024-03-01T14:19:01.780Z,3.22
2024-03-01T14:21:55.017Z,3.95
2024-03-01T14:24:47.589Z,3.88
2024-03-01T14:27:40.982Z,3.95
2024-03-01T14:30:33.993Z,3.08
2024-03-01T14:33:28.388Z,4.88
2024-03-01T14:36:20.746Z,4.30
2024-03-01T14:39:15.216Z,3.72
2024-03-01T14:42:22.746Z,3.63
2024-03-01T14:45:15.317Z,3.85
2024-03-01T14:48:10.153Z,3.47
2024-03-01T14:51:11.017Z,2.83
2024-03-01T14:54:03.539Z,3.95
2024-03-01T14:56:56.296Z,3.65
2024-03-01T14:59:48.732Z,3.53
2024-03-01T15:02:41.373Z,4.15
2024-03-01T15:05:36.646Z,3.20
2024-03-01T15:08:32.810Z,3.97
2024-03-01T15:11:28.428Z,3.42
2024-03-01T15:17:20.001Z,3.75
2024-03-01T15:20:13.321Z,5.43
2024-03-01T15:23:07.038Z,3.72
2024-03-01T15:26:07.604Z,3.95
2024-03-01T15:28:59.891Z,3.70
2024-03-01T15:31:53.451Z,3.58
2024-03-01T15:34:45.935Z,4.07
2024-03-01T15:37:40.115Z,4.22
2024-03-01T15:40:36.850Z,4.95
2024-03-01T15:43:28.921Z,4.10
2024-03-01T15:46:26.824Z,4.85
2024-03-01T15:49:18.912Z,4.07
2024-03-01T15:52:10.976Z,3.85
2024-03-01T15:55:06.784Z,3.85
2024-03-01T15:57:59.174Z,3.00
2024-03-01T16:00:51.968Z,3.22
2024-03-01T16:03:45.573Z,3.45
2024-03-01T16:06:39.263Z,3.60
2024-03-01T16:09:39.776Z,3.83
2024-03-01T16:12:31.581Z,4.00
2024-03-01T16:15:26.099Z,3.72
2024-03-01T16:18:19.385Z,3.67
2024-03-01T16:21:12.766Z,3.58
2024-03-01T16:24:07.019Z,3.78
2024-03-01T16:27:01.257Z,3.85
2024-03-01T16:29:53.943Z,3.95
2024-03-01T16:32:46.937Z,3.83
2024-03-01T16:35:43.990Z,3.97
2024-03-01T16:38:42.293Z,3.95
2024-03-01T16:41:40.573Z,3.80
2024-03-01T16:44:40.654Z,3.70
2024-03-01T16:47:36.524Z,3.58
2024-03-01T16:50:29.619Z,3.60
2024-03-01T16:53:21.785Z,3.92
2024-03-01T16:56:14.303Z,4.00
2024-03-01T16:59:08.693Z,3.90
2024-03-01T17:02:01.904Z,3.45
2024-03-01T17:04:54.824Z,3.72
2024-03-01T17:07:49.527Z,4.50
2024-03-01T17:10:43.015Z,4.60
2024-03-01T17:13:35.924Z,3.55
2024-03-01T17:16:33.450Z,4.35
2024-03-01T17:19:26.278Z,8.32
2024-03-01T17:22:19.551Z,3.75
2024-03-01T17:25:12.155Z,4.20
2024-03-01T17:28:05.333Z,4.43
2024-03-01T17:30:57.763Z,4.75
2024-03-01T17:33:50.465Z,4.85
2024-03-01T17:36:43.039Z,5.35
2024-03-01T17:39:35.011Z,5.43
2024-03-01T17:42:27.038Z,7.10
2024-03-01T17:45:20.292Z,5.10
2024-03-01T17:48:13.404Z,4.38
2024-03-01T17:51:06.511Z,6.20
2024-03-01T17:54:00.818Z,6.88
2024-03-01T17:56:53.063Z,5.63
2024-03-01T17:59:45.046Z,6.75
2024-03-01T18:02:37.233Z,7.78
2024-03-01T18:05:29.447Z,7.22
2024-03-01T18:08:22.414Z,6.18
2024-03-01T18:11:15.235Z,5.20
2024-03-01T18:14:09.043Z,5.97
2024-03-01T18:17:01.164Z,4.80
2024-03-01T18:19:58.356Z,7.68
2024-03-01T18:22:51.432Z,6.03
2024-03-01T18:25:44.423Z,7.32
2024-03-01T18:28:38.432Z,6.95
2024-03-01T18:31:31.327Z,6.80
2024-03-01T18:34:24.763Z,5.50
2024-03-01T18:37:18.454Z,6.72
2024-03-01T18:40:11.272Z,5.45
2024-03-01T18:43:03.280Z,8.23
2024-03-01T18:45:55.066Z,7.40
2024-03-01T18:48:47.271Z,7.13
2024-03-01T18:51:39.607Z,6.95
2024-03-01T18:54:34.048Z,7.75
2024-03-01T18:57:25.973Z,9.02
2024-03-01T19:00:18.827Z,7.53
2024-03-01T19:03:12.145Z,9.55
2024-03-01T19:06:04.695Z,10.38
2024-03-01T19:08:57.225Z,9.27
2024-03-01T19:11:52.090Z,9.38
2024-03-01T19:14:44.377Z,10.32
2024-03-01T19:17:38.020Z,10.70
2024-03-01T19:20:31.249Z,9.07
2024-03-01T19:23:23.270Z,7.95
2024-03-01T19:26:16.353Z,10.30
2024-03-01T19:29:09.655Z,9.23
2024-03-01T19:32:02.903Z,9.80
2024-03-01T19:34:55.202Z,8.77
2024-03-01T19:37:48.113Z,6.72
2024-03-01T19:40:40.488Z,7.80
2024-03-01T19:43:33.539Z,6.95
2024-03-01T19:46:26.388Z,6.40
2024-03-01T19:49:20.094Z,8.52
2024-03-01T19:52:15.628Z,8.40
2024-03-01T19:55:08.608Z,7.07
2024-03-01T19:58:01.284Z,9.35
2024-03-01T20:00:53.348Z,7.97
2024-03-01T20:03:45.622Z,6.65
2024-03-01T20:06:38.561Z,6.80
2024-03-01T20:09:31.932Z,9.88
2024-03-01T20:12:24.321Z,10.07
2024-03-01T20:15:16.882Z,13.05
2024-03-01T20:18:09.499Z,9.23
2024-03-01T20:21:06.705Z,7.55
2024-03-01T20:23:59.779Z,8.48
2024-03-01T20:26:53.295Z,7.10
2024-03-01T20:29:45.675Z,7.65
2024-03-01T20:32:38.437Z,12.73
2024-03-01T20:35:30.416Z,9.82
2024-03-01T20:38:22.579Z,11.00
2024-03-01T20:41:15.297Z,10.13
2024-03-01T20:44:07.322Z,10.57
2024-03-01T20:46:59.539Z,10.85
2024-03-01T20:49:51.342Z,11.50
2024-03-01T20:52:43.687Z,16.33
2024-03-01T20:55:38.990Z,12.68
2024-03-01T20:58:31.666Z,12.50
2024-03-01T21:01:24.435Z,11.30
2024-03-01T21:04:16.661Z,10.60
2024-03-01T21:07:09.588Z,9.20
2024-03-01T21:10:07.000Z,9.65
2024-03-01T21:12:59.644Z,9.35
2024-03-01T21:15:51.627Z,9.23
2024-03-01T21:18:43.553Z,10.00
2024-03-01T21:24:32.549Z,11.75
2024-03-01T21:27:24.834Z,16.58
2024-03-01T21:30:18.607Z,11.10
2024-03-01T21:33:10.713Z,10.77
2024-03-01T21:36:04.046Z,9.93
2024-03-01T21:38:56.592Z,21.98
2024-03-01T21:41:48.582Z,13.60
2024-03-01T21:44:43.811Z,15.20
2024-03-01T21:50:29.764Z,15.68
2024-03-01T21:53:22.305Z,11.80
2024-03-01T21:56:14.777Z,20.75
2024-03-01T21:59:07.933Z,24.88
2024-03-01T22:02:02.483Z,21.90
2024-03-01T22:04:59.690Z,24.92
2024-03-01T22:08:02.371Z,18.83
2024-03-01T22:10:59.609Z,16.33
2024-03-01T22:13:51.641Z,20.23
2024-03-01T22:16:43.692Z,11.60
2024-03-01T22:19:35.738Z,16.58
2024-03-01T22:22:28.536Z,15.23
2024-03-01T22:25:20.874Z,19.88
2024-03-01T22:28:14.998Z,14.07
2024-03-01T22:31:07.696Z,14.68
2024-03-01T22:34:00.217Z,15.88
2024-03-01T22:36:53.301Z,22.23
2024-03-01T22:39:50.065Z,15.90
2024-03-01T22:42:45.653Z,16.73
2024-03-01T22:45:37.986Z,20.02
2024-03-01T22:48:32.150Z,15.15
2024-03-01T22:51:24.962Z,17.50
2024-03-01T22:54:25.250Z,14.52
2024-03-01T22:57:26.659Z,15.43
2024-03-01T23:00:20.711Z,15.63
2024-03-01T23:03:18.615Z,17.08
2024-03-01T23:06:16.682Z,21.13
2024-03-01T23:09:19.035Z,23.58
2024-03-01T23:12:12.716Z,14.70
2024-03-01T23:15:05.589Z,16.58
2024-03-01T23:17:57.846Z,14.27
2024-03-01T23:20:50.383Z,24.48
2024-03-01T23:23:43.381Z,15.90
2024-03-01T23:26:35.718Z,16.30
2024-03-01T23:29:27.567Z,14.48
2024-03-01T23:32:19.637Z,18.25
2024-03-01T23:35:11.716Z,14.43
2024-03-01T23:38:04.024Z,18.30
2024-03-01T23:40:57.382Z,15.00
2024-03-01T23:43:50.089Z,16.20
2024-03-01T23:46:43.077Z,13.35
2024-03-01T23:49:35.805Z,14.85
2024-03-01T23:52:28.739Z,14.80
2024-03-01T23:55:22.295Z,16.50
2024-03-01T23:58:15.177Z,14.05
